sensor_id;sensor_type;location;lat;lon;timestamp;P1;durP1;ratioP1;P2;durP2;ratioP2
8401;SDS011;4238;48.404;9.498;2022-07-21T00:01:30;18.08;;;16.30;;
8401;SDS011;4238;48.404;9.498;2022-07-21T00:03:57;17.55;;;16.05;;
8401;SDS011;4238;48.404;9.498;2022-07-21T00:06:24;17.30;;;15.90;;
8401;SDS011;4238;48.404;9.498;2022-07-21T00:08:51;16.40;;;14.90;;
8401;SDS011;4238;48.404;9.498;2022-07-21T00:11:19;17.60;;;16.08;;
8401;SDS011;4238;48.404;9.498;2022-07-21T00:13:46;18.25;;;16.58;;
8401;SDS011;4238;48.404;9.498;2022-07-21T00:16:13;19.52;;;17.63;;
8401;SDS011;4238;48.404;9.498;2022-07-21T00:18:42;18.38;;;16.67;;
8401;SDS011;4238;48.404;9.498;2022-07-21T00:21:11;19.30;;;16.98;;
8401;SDS011;4238;48.404;9.498;2022-07-21T00:23:38;18.33;;;16.58;;
8401;SDS011;4238;48.404;9.498;2022-07-21T00:26:05;18.02;;;16.35;;
8401;SDS011;4238;48.404;9.498;2022-07-21T00:28:34;17.70;;;16.08;;
8401;SDS011;4238;48.404;9.498;2022-07-21T00:31:00;16.63;;;15.13;;
8401;SDS011;4238;48.404;9.498;2022-07-21T00:33:27;17.52;;;15.90;;
8401;SDS011;4238;48.404;9.498;2022-07-21T00:35:54;17.75;;;16.15;;
8401;SDS011;4238;48.404;9.498;2022-07-21T00:38:21;17.55;;;15.85;;
8401;SDS011;4238;48.404;9.498;2022-07-21T00:40:48;15.85;;;14.55;;
8401;SDS011;4238;48.404;9.498;2022-07-21T00:43:15;15.57;;;14.05;;
8401;SDS011;4238;48.404;9.498;2022-07-21T00:45:44;15.63;;;14.20;;
8401;SDS011;4238;48.404;9.498;2022-07-21T00:48:11;15.65;;;14.27;;
8401;SDS011;4238;48.404;9.498;2022-07-21T00:50:38;15.80;;;14.43;;
8401;SDS011;4238;48.404;9.498;2022-07-21T00:53:05;14.90;;;13.50;;
8401;SDS011;4238;48.404;9.498;2022-07-21T00:55:32;14.88;;;13.57;;
8401;SDS011;4238;48.404;9.498;2022-07-21T00:57:59;14.77;;;13.27;;
8401;SDS011;4238;48.404;9.498;2022-07-21T01:00:27;15.43;;;14.02;;
8401;SDS011;4238;48.404;9.498;2022-07-21T01:02:56;14.13;;;12.82;;
8401;SDS011;4238;48.404;9.498;2022-07-21T01:05:24;12.98;;;11.80;;
8401;SDS011;4238;48.404;9.498;2022-07-21T01:07:53;13.23;;;12.02;;
8401;SDS011;4238;48.404;9.498;2022-07-21T01:10:21;13.38;;;12.18;;
8401;SDS011;4238;48.404;9.498;2022-07-21T01:12:50;13.82;;;12.52;;
8401;SDS011;4238;48.404;9.498;2022-07-21T01:15:18;13.68;;;12.27;;
8401;SDS011;4238;48.404;9.498;2022-07-21T01:17:45;14.43;;;13.02;;
8401;SDS011;4238;48.404;9.498;2022-07-21T01:20:15;14.38;;;13.10;;
8401;SDS011;4238;48.404;9.498;2022-07-21T01:22:46;13.45;;;12.05;;
8401;SDS011;4238;48.404;9.498;2022-07-21T01:25:15;13.57;;;12.45;;
8401;SDS011;4238;48.404;9.498;2022-07-21T01:27:45;13.43;;;12.23;;
8401;SDS011;4238;48.404;9.498;2022-07-21T01:30:12;14.15;;;12.75;;
8401;SDS011;4238;48.404;9.498;2022-07-21T01:32:40;13.75;;;12.57;;
8401;SDS011;4238;48.404;9.498;2022-07-21T01:35:08;13.52;;;12.23;;
8401;SDS011;4238;48.404;9.498;2022-07-21T01:37:38;14.27;;;12.88;;
8401;SDS011;4238;48.404;9.498;2022-07-21T01:40:09;14.25;;;12.73;;
8401;SDS011;4238;48.404;9.498;2022-07-21T01:42:54;15.07;;;13.70;;
8401;SDS011;4238;48.404;9.498;2022-07-21T01:45:21;13.75;;;12.38;;
8401;SDS011;4238;48.404;9.498;2022-07-21T01:47:48;15.00;;;13.65;;
8401;SDS011;4238;48.404;9.498;2022-07-21T01:50:15;14.63;;;13.43;;
8401;SDS011;4238;48.404;9.498;2022-07-21T01:52:44;14.85;;;13.45;;
8401;SDS011;4238;48.404;9.498;2022-07-21T01:55:12;15.05;;;13.73;;
8401;SDS011;4238;48.404;9.498;2022-07-21T01:57:41;13.55;;;12.27;;
8401;SDS011;4238;48.404;9.498;2022-07-21T02:00:08;15.40;;;13.98;;
8401;SDS011;4238;48.404;9.498;2022-07-21T02:02:35;14.40;;;13.10;;
8401;SDS011;4238;48.404;9.498;2022-07-21T02:05:02;14.50;;;13.27;;
8401;SDS011;4238;48.404;9.498;2022-07-21T02:07:30;15.60;;;14.00;;
8401;SDS011;4238;48.404;9.498;2022-07-21T02:09:57;15.68;;;14.27;;
8401;SDS011;4238;48.404;9.498;2022-07-21T02:12:25;17.63;;;15.65;;
8401;SDS011;4238;48.404;9.498;2022-07-21T02:14:52;16.60;;;15.10;;
8401;SDS011;4238;48.404;9.498;2022-07-21T02:17:19;16.60;;;15.02;;
8401;SDS011;4238;48.404;9.498;2022-07-21T02:19:46;15.70;;;14.35;;
8401;SDS011;4238;48.404;9.498;2022-07-21T02:22:13;16.63;;;15.02;;
8401;SDS011;4238;48.404;9.498;2022-07-21T02:24:40;16.08;;;14.60;;
8401;SDS011;4238;48.404;9.498;2022-07-21T02:27:06;15.45;;;14.13;;
8401;SDS011;4238;48.404;9.498;2022-07-21T02:29:35;15.20;;;13.90;;
8401;SDS011;4238;48.404;9.498;2022-07-21T02:32:02;14.93;;;13.52;;
8401;SDS011;4238;48.404;9.498;2022-07-21T02:34:29;14.25;;;12.95;;
8401;SDS011;4238;48.404;9.498;2022-07-21T02:36:56;14.45;;;13.02;;
8401;SDS011;4238;48.404;9.498;2022-07-21T02:39:23;15.10;;;13.70;;
8401;SDS011;4238;48.404;9.498;2022-07-21T02:41:51;13.23;;;12.10;;
8401;SDS011;4238;48.404;9.498;2022-07-21T02:44:18;15.70;;;14.25;;
8401;SDS011;4238;48.404;9.498;2022-07-21T02:46:46;14.60;;;13.30;;
8401;SDS011;4238;48.404;9.498;2022-07-21T02:49:13;13.20;;;12.10;;
8401;SDS011;4238;48.404;9.498;2022-07-21T02:51:40;13.93;;;12.73;;
8401;SDS011;4238;48.404;9.498;2022-07-21T02:54:07;15.57;;;14.02;;
8401;SDS011;4238;48.404;9.498;2022-07-21T02:56:34;14.40;;;13.25;;
8401;SDS011;4238;48.404;9.498;2022-07-21T02:59:01;14.52;;;13.10;;
8401;SDS011;4238;48.404;9.498;2022-07-21T03:01:27;13.60;;;12.40;;
8401;SDS011;4238;48.404;9.498;2022-07-21T03:03:56;14.30;;;13.00;;
8401;SDS011;4238;48.404;9.498;2022-07-21T03:06:23;14.38;;;13.15;;
8401;SDS011;4238;48.404;9.498;2022-07-21T03:08:50;13.82;;;12.63;;
8401;SDS011;4238;48.404;9.498;2022-07-21T03:11:17;15.02;;;13.57;;
8401;SDS011;4238;48.404;9.498;2022-07-21T03:13:45;14.00;;;12.90;;
8401;SDS011;4238;48.404;9.498;2022-07-21T03:16:12;13.70;;;12.60;;
8401;SDS011;4238;48.404;9.498;2022-07-21T03:18:39;14.52;;;13.30;;
8401;SDS011;4238;48.404;9.498;2022-07-21T03:21:07;13.90;;;12.60;;
8401;SDS011;4238;48.404;9.498;2022-07-21T03:23:34;14.10;;;12.85;;
8401;SDS011;4238;48.404;9.498;2022-07-21T03:26:02;12.73;;;11.68;;
8401;SDS011;4238;48.404;9.498;2022-07-21T03:28:29;13.85;;;12.65;;
8401;SDS011;4238;48.404;9.498;2022-07-21T03:30:55;13.55;;;12.35;;
8401;SDS011;4238;48.404;9.498;2022-07-21T03:33:22;13.68;;;12.40;;
8401;SDS011;4238;48.404;9.498;2022-07-21T03:35:49;13.73;;;12.32;;
8401;SDS011;4238;48.404;9.498;2022-07-21T03:38:18;12.10;;;11.10;;
8401;SDS011;4238;48.404;9.498;2022-07-21T03:40:44;12.90;;;11.77;;
8401;SDS011;4238;48.404;9.498;2022-07-21T03:43:11;13.02;;;11.82;;
8401;SDS011;4238;48.404;9.498;2022-07-21T03:45:39;11.50;;;10.55;;
8401;SDS011;4238;48.404;9.498;2022-07-21T03:48:06;12.07;;;11.10;;
8401;SDS011;4238;48.404;9.498;2022-07-21T03:50:34;11.70;;;10.70;;
8401;SDS011;4238;48.404;9.498;2022-07-21T03:53:01;11.93;;;11.02;;
8401;SDS011;4238;48.404;9.498;2022-07-21T03:55:30;13.27;;;12.27;;
8401;SDS011;4238;48.404;9.498;2022-07-21T03:57:58;12.20;;;11.07;;
8401;SDS011;4238;48.404;9.498;2022-07-21T04:02:58;11.70;;;10.60;;
8401;SDS011;4238;48.404;9.498;2022-07-21T04:05:25;11.30;;;10.40;;
8401;SDS011;4238;48.404;9.498;2022-07-21T04:07:54;11.30;;;10.30;;
8401;SDS011;4238;48.404;9.498;2022-07-21T04:10:21;11.85;;;10.75;;
8401;SDS011;4238;48.404;9.498;2022-07-21T04:12:51;11.65;;;10.65;;
8401;SDS011;4238;48.404;9.498;2022-07-21T04:15:20;11.68;;;10.68;;
8401;SDS011;4238;48.404;9.498;2022-07-21T04:17:47;12.05;;;10.95;;
8401;SDS011;4238;48.404;9.498;2022-07-21T04:20:14;12.57;;;11.38;;
8401;SDS011;4238;48.404;9.498;2022-07-21T04:22:42;13.32;;;12.07;;
8401;SDS011;4238;48.404;9.498;2022-07-21T04:25:09;12.50;;;11.40;;
8401;SDS011;4238;48.404;9.498;2022-07-21T04:27:37;12.80;;;11.63;;
8401;SDS011;4238;48.404;9.498;2022-07-21T04:30:07;12.63;;;11.50;;
8401;SDS011;4238;48.404;9.498;2022-07-21T04:32:35;13.32;;;12.13;;
8401;SDS011;4238;48.404;9.498;2022-07-21T04:35:03;13.20;;;12.05;;
8401;SDS011;4238;48.404;9.498;2022-07-21T04:37:31;15.00;;;13.50;;
8401;SDS011;4238;48.404;9.498;2022-07-21T04:39:58;14.73;;;13.32;;
8401;SDS011;4238;48.404;9.498;2022-07-21T04:42:25;14.18;;;12.77;;
8401;SDS011;4238;48.404;9.498;2022-07-21T04:44:52;14.50;;;13.07;;
8401;SDS011;4238;48.404;9.498;2022-07-21T04:47:20;14.43;;;13.13;;
8401;SDS011;4238;48.404;9.498;2022-07-21T04:49:47;14.73;;;13.32;;
8401;SDS011;4238;48.404;9.498;2022-07-21T04:52:14;14.02;;;12.77;;
8401;SDS011;4238;48.404;9.498;2022-07-21T04:54:41;14.00;;;12.70;;
8401;SDS011;4238;48.404;9.498;2022-07-21T04:57:08;14.20;;;12.85;;
8401;SDS011;4238;48.404;9.498;2022-07-21T04:59:35;14.32;;;13.05;;
8401;SDS011;4238;48.404;9.498;2022-07-21T05:02:03;14.35;;;13.02;;
8401;SDS011;4238;48.404;9.498;2022-07-21T05:04:32;14.18;;;12.82;;
8401;SDS011;4238;48.404;9.498;2022-07-21T05:06:59;14.10;;;12.82;;
8401;SDS011;4238;48.404;9.498;2022-07-21T05:09:26;13.38;;;11.98;;
8401;SDS011;4238;48.404;9.498;2022-07-21T05:11:53;12.80;;;11.70;;
8401;SDS011;4238;48.404;9.498;2022-07-21T05:14:19;13.23;;;11.93;;
8401;SDS011;4238;48.404;9.498;2022-07-21T05:16:46;13.05;;;11.65;;
8401;SDS011;4238;48.404;9.498;2022-07-21T05:19:13;13.10;;;12.00;;
8401;SDS011;4238;48.404;9.498;2022-07-21T05:21:42;13.85;;;11.75;;
8401;SDS011;4238;48.404;9.498;2022-07-21T05:24:10;12.70;;;11.50;;
8401;SDS011;4238;48.404;9.498;2022-07-21T05:26:37;12.63;;;11.48;;
8401;SDS011;4238;48.404;9.498;2022-07-21T05:29:04;12.85;;;11.45;;
8401;SDS011;4238;48.404;9.498;2022-07-21T05:31:31;13.10;;;11.88;;
8401;SDS011;4238;48.404;9.498;2022-07-21T05:33:58;11.45;;;10.40;;
8401;SDS011;4238;48.404;9.498;2022-07-21T05:36:25;12.57;;;11.57;;
8401;SDS011;4238;48.404;9.498;2022-07-21T05:38:53;11.32;;;10.38;;
8401;SDS011;4238;48.404;9.498;2022-07-21T05:41:20;12.30;;;11.20;;
8401;SDS011;4238;48.404;9.498;2022-07-21T05:43:47;11.35;;;10.35;;
8401;SDS011;4238;48.404;9.498;2022-07-21T05:46:14;11.80;;;10.80;;
8401;SDS011;4238;48.404;9.498;2022-07-21T05:48:41;12.25;;;11.15;;
8401;SDS011;4238;48.404;9.498;2022-07-21T05:51:08;11.32;;;10.23;;
8401;SDS011;4238;48.404;9.498;2022-07-21T05:53:35;11.00;;;9.98;;
8401;SDS011;4238;48.404;9.498;2022-07-21T05:56:03;11.52;;;10.35;;
8401;SDS011;4238;48.404;9.498;2022-07-21T05:58:32;11.35;;;10.40;;
8401;SDS011;4238;48.404;9.498;2022-07-21T06:00:59;11.30;;;10.30;;
8401;SDS011;4238;48.404;9.498;2022-07-21T06:03:38;10.75;;;9.85;;
8401;SDS011;4238;48.404;9.498;2022-07-21T06:06:07;10.63;;;9.60;;
8401;SDS011;4238;48.404;9.498;2022-07-21T06:08:34;10.10;;;9.27;;
8401;SDS011;4238;48.404;9.498;2022-07-21T06:11:04;10.95;;;9.77;;
8401;SDS011;4238;48.404;9.498;2022-07-21T06:13:31;10.52;;;9.63;;
8401;SDS011;4238;48.404;9.498;2022-07-21T06:15:58;11.02;;;9.93;;
8401;SDS011;4238;48.404;9.498;2022-07-21T06:18:24;12.60;;;10.00;;
8401;SDS011;4238;48.404;9.498;2022-07-21T06:20:51;10.80;;;9.80;;
8401;SDS011;4238;48.404;9.498;2022-07-21T06:23:18;10.30;;;9.35;;
8401;SDS011;4238;48.404;9.498;2022-07-21T06:25:45;11.27;;;10.30;;
8401;SDS011;4238;48.404;9.498;2022-07-21T06:28:14;12.30;;;11.05;;
8401;SDS011;4238;48.404;9.498;2022-07-21T06:30:41;10.82;;;9.63;;
8401;SDS011;4238;48.404;9.498;2022-07-21T06:33:08;10.18;;;9.32;;
8401;SDS011;4238;48.404;9.498;2022-07-21T06:35:35;10.38;;;9.40;;
8401;SDS011;4238;48.404;9.498;2022-07-21T06:38:02;9.73;;;8.82;;
8401;SDS011;4238;48.404;9.498;2022-07-21T06:40:29;9.65;;;8.82;;
8401;SDS011;4238;48.404;9.498;2022-07-21T06:42:57;10.07;;;9.18;;
8401;SDS011;4238;48.404;9.498;2022-07-21T06:45:25;9.48;;;8.60;;
8401;SDS011;4238;48.404;9.498;2022-07-21T06:47:58;9.25;;;8.55;;
8401;SDS011;4238;48.404;9.498;2022-07-21T06:50:26;9.95;;;9.15;;
8401;SDS011;4238;48.404;9.498;2022-07-21T06:52:53;9.95;;;8.88;;
8401;SDS011;4238;48.404;9.498;2022-07-21T06:55:20;8.82;;;8.13;;
8401;SDS011;4238;48.404;9.498;2022-07-21T06:57:47;9.02;;;8.20;;
8401;SDS011;4238;48.404;9.498;2022-07-21T07:00:14;9.50;;;8.70;;
8401;SDS011;4238;48.404;9.498;2022-07-21T07:02:43;9.82;;;9.02;;
8401;SDS011;4238;48.404;9.498;2022-07-21T07:05:10;9.65;;;8.82;;
8401;SDS011;4238;48.404;9.498;2022-07-21T07:07:38;10.23;;;9.25;;
8401;SDS011;4238;48.404;9.498;2022-07-21T07:10:05;9.90;;;8.93;;
8401;SDS011;4238;48.404;9.498;2022-07-21T07:12:32;10.05;;;9.20;;
8401;SDS011;4238;48.404;9.498;2022-07-21T07:15:00;9.35;;;8.55;;
8401;SDS011;4238;48.404;9.498;2022-07-21T07:17:27;11.25;;;9.25;;
8401;SDS011;4238;48.404;9.498;2022-07-21T07:19:55;9.25;;;8.45;;
8401;SDS011;4238;48.404;9.498;2022-07-21T07:22:22;8.82;;;8.05;;
8401;SDS011;4238;48.404;9.498;2022-07-21T07:24:49;9.23;;;8.23;;
8401;SDS011;4238;48.404;9.498;2022-07-21T07:27:16;10.07;;;8.65;;
8401;SDS011;4238;48.404;9.498;2022-07-21T07:29:43;8.90;;;8.20;;
8401;SDS011;4238;48.404;9.498;2022-07-21T07:32:10;8.80;;;8.05;;
8401;SDS011;4238;48.404;9.498;2022-07-21T07:34:37;8.88;;;8.05;;
8401;SDS011;4238;48.404;9.498;2022-07-21T07:37:06;8.90;;;8.10;;
8401;SDS011;4238;48.404;9.498;2022-07-21T07:39:33;8.48;;;7.63;;
8401;SDS011;4238;48.404;9.498;2022-07-21T07:42:00;8.13;;;7.45;;
8401;SDS011;4238;48.404;9.498;2022-07-21T07:44:27;8.40;;;7.70;;
8401;SDS011;4238;48.404;9.498;2022-07-21T07:46:54;8.02;;;7.40;;
8401;SDS011;4238;48.404;9.498;2022-07-21T07:49:21;9.07;;;8.20;;
8401;SDS011;4238;48.404;9.498;2022-07-21T07:51:48;8.13;;;7.50;;
8401;SDS011;4238;48.404;9.498;2022-07-21T07:54:16;8.73;;;8.00;;
8401;SDS011;4238;48.404;9.498;2022-07-21T07:56:43;8.80;;;8.00;;
8401;SDS011;4238;48.404;9.498;2022-07-21T07:59:10;8.68;;;7.93;;
8401;SDS011;4238;48.404;9.498;2022-07-21T08:01:37;8.93;;;8.13;;
8401;SDS011;4238;48.404;9.498;2022-07-21T08:04:04;9.02;;;8.23;;
8401;SDS011;4238;48.404;9.498;2022-07-21T08:06:31;8.02;;;7.43;;
8401;SDS011;4238;48.404;9.498;2022-07-21T08:08:58;7.90;;;7.20;;
8401;SDS011;4238;48.404;9.498;2022-07-21T08:11:26;8.43;;;7.63;;
8401;SDS011;4238;48.404;9.498;2022-07-21T08:13:53;9.00;;;8.02;;
8401;SDS011;4238;48.404;9.498;2022-07-21T08:16:20;7.78;;;7.18;;
8401;SDS011;4238;48.404;9.498;2022-07-21T08:18:47;8.25;;;7.55;;
8401;SDS011;4238;48.404;9.498;2022-07-21T08:21:14;8.32;;;7.53;;
8401;SDS011;4238;48.404;9.498;2022-07-21T08:23:41;9.00;;;8.20;;
8401;SDS011;4238;48.404;9.498;2022-07-21T08:26:08;8.30;;;7.57;;
8401;SDS011;4238;48.404;9.498;2022-07-21T08:28:36;8.57;;;7.80;;
8401;SDS011;4238;48.404;9.498;2022-07-21T08:31:03;7.57;;;6.97;;
8401;SDS011;4238;48.404;9.498;2022-07-21T08:33:30;8.60;;;7.90;;
8401;SDS011;4238;48.404;9.498;2022-07-21T08:35:57;7.90;;;7.20;;
8401;SDS011;4238;48.404;9.498;2022-07-21T08:38:24;8.40;;;7.60;;
8401;SDS011;4238;48.404;9.498;2022-07-21T08:40:51;8.00;;;7.35;;
8401;SDS011;4238;48.404;9.498;2022-07-21T08:43:18;8.63;;;7.93;;
8401;SDS011;4238;48.404;9.498;2022-07-21T08:45:47;8.35;;;7.53;;
8401;SDS011;4238;48.404;9.498;2022-07-21T08:48:14;8.57;;;7.85;;
8401;SDS011;4238;48.404;9.498;2022-07-21T08:50:44;8.98;;;7.63;;
8401;SDS011;4238;48.404;9.498;2022-07-21T08:53:11;7.93;;;7.22;;
8401;SDS011;4238;48.404;9.498;2022-07-21T08:55:38;8.18;;;7.57;;
8401;SDS011;4238;48.404;9.498;2022-07-21T08:58:06;8.27;;;7.32;;
8401;SDS011;4238;48.404;9.498;2022-07-21T09:00:34;8.63;;;7.82;;
8401;SDS011;4238;48.404;9.498;2022-07-21T09:03:09;7.80;;;7.20;;
8401;SDS011;4238;48.404;9.498;2022-07-21T09:05:38;8.85;;;7.95;;
8401;SDS011;4238;48.404;9.498;2022-07-21T09:08:05;8.57;;;7.88;;
8401;SDS011;4238;48.404;9.498;2022-07-21T09:10:32;8.25;;;7.53;;
8401;SDS011;4238;48.404;9.498;2022-07-21T09:12:59;7.63;;;7.03;;
8401;SDS011;4238;48.404;9.498;2022-07-21T09:15:28;8.38;;;7.57;;
8401;SDS011;4238;48.404;9.498;2022-07-21T09:18:04;7.60;;;6.90;;
8401;SDS011;4238;48.404;9.498;2022-07-21T09:20:35;8.27;;;7.68;;
8401;SDS011;4238;48.404;9.498;2022-07-21T09:23:03;8.15;;;7.55;;
8401;SDS011;4238;48.404;9.498;2022-07-21T09:25:35;8.32;;;7.63;;
8401;SDS011;4238;48.404;9.498;2022-07-21T09:28:10;7.97;;;7.28;;
8401;SDS011;4238;48.404;9.498;2022-07-21T09:30:55;8.48;;;7.78;;
8401;SDS011;4238;48.404;9.498;2022-07-21T09:33:26;7.90;;;7.30;;
8401;SDS011;4238;48.404;9.498;2022-07-21T09:35:59;8.32;;;7.47;;
8401;SDS011;4238;48.404;9.498;2022-07-21T09:38:30;7.75;;;7.10;;
8401;SDS011;4238;48.404;9.498;2022-07-21T09:41:08;8.00;;;7.28;;
8401;SDS011;4238;48.404;9.498;2022-07-21T09:43:38;7.47;;;6.78;;
8401;SDS011;4238;48.404;9.498;2022-07-21T09:46:11;7.78;;;7.20;;
8401;SDS011;4238;48.404;9.498;2022-07-21T09:48:41;8.43;;;7.72;;
8401;SDS011;4238;48.404;9.498;2022-07-21T09:51:21;7.80;;;7.20;;
8401;SDS011;4238;48.404;9.498;2022-07-21T09:53:50;8.43;;;7.78;;
8401;SDS011;4238;48.404;9.498;2022-07-21T09:56:19;8.52;;;7.70;;
8401;SDS011;4238;48.404;9.498;2022-07-21T09:58:47;8.35;;;7.65;;
8401;SDS011;4238;48.404;9.498;2022-07-21T10:01:15;8.63;;;7.88;;
8401;SDS011;4238;48.404;9.498;2022-07-21T10:03:43;8.75;;;7.88;;
8401;SDS011;4238;48.404;9.498;2022-07-21T10:06:11;8.23;;;7.53;;
8401;SDS011;4238;48.404;9.498;2022-07-21T10:08:41;7.82;;;7.28;;
8401;SDS011;4238;48.404;9.498;2022-07-21T10:11:09;8.27;;;7.57;;
8401;SDS011;4238;48.404;9.498;2022-07-21T10:13:37;8.27;;;7.57;;
8401;SDS011;4238;48.404;9.498;2022-07-21T10:16:04;8.32;;;7.55;;
8401;SDS011;4238;48.404;9.498;2022-07-21T10:18:34;7.72;;;7.13;;
8401;SDS011;4238;48.404;9.498;2022-07-21T10:21:08;7.70;;;7.10;;
8401;SDS011;4238;48.404;9.498;2022-07-21T10:23:45;7.72;;;7.18;;
8401;SDS011;4238;48.404;9.498;2022-07-21T10:26:12;7.68;;;7.07;;
8401;SDS011;4238;48.404;9.498;2022-07-21T10:28:40;8.02;;;7.40;;
8401;SDS011;4238;48.404;9.498;2022-07-21T10:31:14;8.00;;;7.30;;
8401;SDS011;4238;48.404;9.498;2022-07-21T10:33:53;7.32;;;6.82;;
8401;SDS011;4238;48.404;9.498;2022-07-21T10:36:40;7.35;;;6.75;;
8401;SDS011;4238;48.404;9.498;2022-07-21T10:39:22;7.15;;;6.65;;
8401;SDS011;4238;48.404;9.498;2022-07-21T10:41:51;8.35;;;7.68;;
8401;SDS011;4238;48.404;9.498;2022-07-21T10:44:38;7.55;;;6.95;;
8401;SDS011;4238;48.404;9.498;2022-07-21T10:47:09;7.18;;;6.55;;
8401;SDS011;4238;48.404;9.498;2022-07-21T10:49:41;6.65;;;6.05;;
8401;SDS011;4238;48.404;9.498;2022-07-21T10:55:19;7.35;;;6.85;;
8401;SDS011;4238;48.404;9.498;2022-07-21T10:58:13;7.10;;;6.60;;
8401;SDS011;4238;48.404;9.498;2022-07-21T11:00:46;7.40;;;6.88;;
8401;SDS011;4238;48.404;9.498;2022-07-21T11:03:17;7.55;;;6.95;;
8401;SDS011;4238;48.404;9.498;2022-07-21T11:06:12;7.32;;;6.60;;
8401;SDS011;4238;48.404;9.498;2022-07-21T11:08:45;7.53;;;6.90;;
8401;SDS011;4238;48.404;9.498;2022-07-21T11:11:15;8.00;;;6.60;;
8401;SDS011;4238;48.404;9.498;2022-07-21T11:19:27;6.05;;;5.55;;
8401;SDS011;4238;48.404;9.498;2022-07-21T11:22:01;6.03;;;5.63;;
8401;SDS011;4238;48.404;9.498;2022-07-21T11:24:29;5.70;;;5.30;;
8401;SDS011;4238;48.404;9.498;2022-07-21T11:26:59;5.68;;;5.22;;
8401;SDS011;4238;48.404;9.498;2022-07-21T11:29:30;5.75;;;5.25;;
8401;SDS011;4238;48.404;9.498;2022-07-21T11:31:58;5.68;;;5.20;;
8401;SDS011;4238;48.404;9.498;2022-07-21T11:34:33;6.22;;;5.70;;
8401;SDS011;4238;48.404;9.498;2022-07-21T11:37:08;5.35;;;5.05;;
8401;SDS011;4238;48.404;9.498;2022-07-21T11:39:36;5.75;;;5.20;;
8401;SDS011;4238;48.404;9.498;2022-07-21T11:42:06;6.13;;;5.35;;
8401;SDS011;4238;48.404;9.498;2022-07-21T11:44:36;5.50;;;5.05;;
8401;SDS011;4238;48.404;9.498;2022-07-21T11:47:03;6.20;;;5.68;;
8401;SDS011;4238;48.404;9.498;2022-07-21T11:49:31;5.57;;;5.07;;
8401;SDS011;4238;48.404;9.498;2022-07-21T11:52:00;5.57;;;5.18;;
8401;SDS011;4238;48.404;9.498;2022-07-21T11:54:30;6.15;;;5.47;;
8401;SDS011;4238;48.404;9.498;2022-07-21T11:56:59;6.43;;;5.90;;
8401;SDS011;4238;48.404;9.498;2022-07-21T11:59:29;5.95;;;5.55;;
8401;SDS011;4238;48.404;9.498;2022-07-21T12:01:58;6.03;;;5.53;;
8401;SDS011;4238;48.404;9.498;2022-07-21T12:04:37;5.90;;;5.50;;
8401;SDS011;4238;48.404;9.498;2022-07-21T12:07:11;6.10;;;5.60;;
8401;SDS011;4238;48.404;9.498;2022-07-21T12:09:39;6.05;;;5.45;;
8401;SDS011;4238;48.404;9.498;2022-07-21T12:12:07;6.15;;;5.75;;
8401;SDS011;4238;48.404;9.498;2022-07-21T12:14:39;6.20;;;5.70;;
8401;SDS011;4238;48.404;9.498;2022-07-21T12:17:11;5.35;;;4.85;;
8401;SDS011;4238;48.404;9.498;2022-07-21T12:19:38;6.03;;;5.47;;
8401;SDS011;4238;48.404;9.498;2022-07-21T12:22:06;6.05;;;5.55;;
8401;SDS011;4238;48.404;9.498;2022-07-21T12:24:50;5.95;;;5.35;;
8401;SDS011;4238;48.404;9.498;2022-07-21T12:27:22;5.95;;;5.45;;
8401;SDS011;4238;48.404;9.498;2022-07-21T12:29:51;5.63;;;5.22;;
8401;SDS011;4238;48.404;9.498;2022-07-21T12:35:05;5.63;;;5.18;;
8401;SDS011;4238;48.404;9.498;2022-07-21T12:37:51;5.45;;;5.05;;
8401;SDS011;4238;48.404;9.498;2022-07-21T12:40:19;5.47;;;5.07;;
8401;SDS011;4238;48.404;9.498;2022-07-21T12:42:46;5.30;;;4.90;;
8401;SDS011;4238;48.404;9.498;2022-07-21T12:45:15;5.22;;;4.93;;
8401;SDS011;4238;48.404;9.498;2022-07-21T12:47:43;5.18;;;4.88;;
8401;SDS011;4238;48.404;9.498;2022-07-21T12:50:30;5.95;;;5.45;;
8401;SDS011;4238;48.404;9.498;2022-07-21T12:52:57;5.57;;;5.18;;
8401;SDS011;4238;48.404;9.498;2022-07-21T12:55:24;5.95;;;5.47;;
8401;SDS011;4238;48.404;9.498;2022-07-21T12:57:51;5.25;;;4.85;;
8401;SDS011;4238;48.404;9.498;2022-07-21T13:00:19;5.97;;;5.47;;
8401;SDS011;4238;48.404;9.498;2022-07-21T13:02:46;6.10;;;5.50;;
8401;SDS011;4238;48.404;9.498;2022-07-21T13:05:15;5.50;;;5.00;;
8401;SDS011;4238;48.404;9.498;2022-07-21T13:07:42;5.32;;;4.93;;
8401;SDS011;4238;48.404;9.498;2022-07-21T13:10:09;5.88;;;5.47;;
8401;SDS011;4238;48.404;9.498;2022-07-21T13:12:36;5.45;;;5.05;;
8401;SDS011;4238;48.404;9.498;2022-07-21T13:15:04;5.57;;;5.18;;
8401;SDS011;4238;48.404;9.498;2022-07-21T13:17:33;5.85;;;5.40;;
8401;SDS011;4238;48.404;9.498;2022-07-21T13:20:00;5.47;;;5.07;;
8401;SDS011;4238;48.404;9.498;2022-07-21T13:22:28;4.88;;;4.47;;
8401;SDS011;4238;48.404;9.498;2022-07-21T13:24:55;5.32;;;4.85;;
8401;SDS011;4238;48.404;9.498;2022-07-21T13:27:22;5.38;;;4.97;;
8401;SDS011;4238;48.404;9.498;2022-07-21T13:29:49;5.57;;;5.07;;
8401;SDS011;4238;48.404;9.498;2022-07-21T13:32:16;5.80;;;5.28;;
8401;SDS011;4238;48.404;9.498;2022-07-21T13:34:44;5.55;;;5.15;;
8401;SDS011;4238;48.404;9.498;2022-07-21T13:37:11;4.90;;;4.60;;
8401;SDS011;4238;48.404;9.498;2022-07-21T13:39:38;5.30;;;4.90;;
8401;SDS011;4238;48.404;9.498;2022-07-21T13:42:05;6.72;;;5.45;;
8401;SDS011;4238;48.404;9.498;2022-07-21T13:44:33;5.18;;;4.78;;
8401;SDS011;4238;48.404;9.498;2022-07-21T13:47:00;5.30;;;4.80;;
8401;SDS011;4238;48.404;9.498;2022-07-21T13:49:28;5.53;;;5.03;;
8401;SDS011;4238;48.404;9.498;2022-07-21T13:51:56;5.22;;;4.82;;
8401;SDS011;4238;48.404;9.498;2022-07-21T13:54:23;5.60;;;5.10;;
8401;SDS011;4238;48.404;9.498;2022-07-21T13:56:50;5.32;;;4.93;;
8401;SDS011;4238;48.404;9.498;2022-07-21T13:59:17;4.70;;;4.40;;
8401;SDS011;4238;48.404;9.498;2022-07-21T14:01:44;5.53;;;5.10;;
8401;SDS011;4238;48.404;9.498;2022-07-21T14:04:11;6.10;;;5.22;;
8401;SDS011;4238;48.404;9.498;2022-07-21T14:06:38;6.07;;;5.57;;
8401;SDS011;4238;48.404;9.498;2022-07-21T14:09:06;4.95;;;4.65;;
8401;SDS011;4238;48.404;9.498;2022-07-21T14:11:33;5.53;;;5.00;;
8401;SDS011;4238;48.404;9.498;2022-07-21T14:14:01;5.13;;;4.72;;
8401;SDS011;4238;48.404;9.498;2022-07-21T14:16:27;5.30;;;4.90;;
8401;SDS011;4238;48.404;9.498;2022-07-21T14:18:54;5.28;;;4.88;;
8401;SDS011;4238;48.404;9.498;2022-07-21T14:21:21;5.20;;;4.80;;
8401;SDS011;4238;48.404;9.498;2022-07-21T14:23:48;5.00;;;4.63;;
8401;SDS011;4238;48.404;9.498;2022-07-21T14:26:38;5.22;;;4.80;;
8401;SDS011;4238;48.404;9.498;2022-07-21T14:29:05;5.05;;;4.65;;
8401;SDS011;4238;48.404;9.498;2022-07-21T14:31:32;5.15;;;4.75;;
8401;SDS011;4238;48.404;9.498;2022-07-21T14:34:00;5.20;;;4.70;;
8401;SDS011;4238;48.404;9.498;2022-07-21T14:36:27;5.35;;;4.93;;
8401;SDS011;4238;48.404;9.498;2022-07-21T14:38:55;5.03;;;4.53;;
8401;SDS011;4238;48.404;9.498;2022-07-21T14:41:21;4.68;;;4.38;;
8401;SDS011;4238;48.404;9.498;2022-07-21T14:43:50;4.68;;;4.35;;
8401;SDS011;4238;48.404;9.498;2022-07-21T14:46:17;4.70;;;4.40;;
8401;SDS011;4238;48.404;9.498;2022-07-21T14:48:44;4.80;;;4.50;;
8401;SDS011;4238;48.404;9.498;2022-07-21T14:51:11;4.85;;;4.55;;
8401;SDS011;4238;48.404;9.498;2022-07-21T14:53:38;5.43;;;4.93;;
8401;SDS011;4238;48.404;9.498;2022-07-21T14:56:05;4.53;;;4.22;;
8401;SDS011;4238;48.404;9.498;2022-07-21T14:58:32;4.82;;;4.53;;
8401;SDS011;4238;48.404;9.498;2022-07-21T15:01:01;4.82;;;4.47;;
8401;SDS011;4238;48.404;9.498;2022-07-21T15:03:28;5.00;;;4.60;;
8401;SDS011;4238;48.404;9.498;2022-07-21T15:05:55;4.97;;;4.65;;
8401;SDS011;4238;48.404;9.498;2022-07-21T15:08:22;5.20;;;4.78;;
8401;SDS011;4238;48.404;9.498;2022-07-21T15:10:49;6.53;;;4.68;;
8401;SDS011;4238;48.404;9.498;2022-07-21T15:13:16;5.28;;;4.97;;
8401;SDS011;4238;48.404;9.498;2022-07-21T15:15:43;4.82;;;4.53;;
8401;SDS011;4238;48.404;9.498;2022-07-21T15:18:11;5.10;;;4.70;;
8401;SDS011;4238;48.404;9.498;2022-07-21T15:20:38;5.18;;;4.78;;
8401;SDS011;4238;48.404;9.498;2022-07-21T15:23:06;5.38;;;4.95;;
8401;SDS011;4238;48.404;9.498;2022-07-21T15:25:33;5.05;;;4.65;;